sensor_id;sensor_type;location;lat;lon;timestamp;P1;durP1;ratioP1;P2;durP2;ratioP2
47804;SDS011;33568;45.286;9.900;2023-04-25T00:00:37;2.28;;;1.92;;
47804;SDS011;33568;45.286;9.900;2023-04-25T00:05:31;3.30;;;2.17;;
47804;SDS011;33568;45.286;9.900;2023-04-25T00:10:24;4.22;;;2.35;;
47804;SDS011;33568;45.286;9.900;2023-04-25T00:15:17;2.63;;;2.00;;
47804;SDS011;33568;45.286;9.900;2023-04-25T00:20:11;2.13;;;1.80;;
47804;SDS011;33568;45.286;9.900;2023-04-25T00:22:38;3.03;;;2.03;;
47804;SDS011;33568;45.286;9.900;2023-04-25T00:25:04;2.55;;;1.80;;
47804;SDS011;33568;45.286;9.900;2023-04-25T00:27:32;3.33;;;2.00;;
47804;SDS011;33568;45.286;9.900;2023-04-25T00:29:59;2.92;;;1.98;;
47804;SDS011;33568;45.286;9.900;2023-04-25T00:32:26;2.10;;;1.70;;
47804;SDS011;33568;45.286;9.900;2023-04-25T00:37:18;3.03;;;2.17;;
47804;SDS011;33568;45.286;9.900;2023-04-25T00:39:45;2.00;;;1.80;;
47804;SDS011;33568;45.286;9.900;2023-04-25T00:44:38;1.95;;;1.70;;
47804;SDS011;33568;45.286;9.900;2023-04-25T00:47:05;2.85;;;1.80;;
47804;SDS011;33568;45.286;9.900;2023-04-25T00:49:32;3.88;;;1.90;;
47804;SDS011;33568;45.286;9.900;2023-04-25T00:54:25;3.90;;;1.98;;
47804;SDS011;33568;45.286;9.900;2023-04-25T00:56:52;3.45;;;2.33;;
47804;SDS011;33568;45.286;9.900;2023-04-25T00:59:19;3.55;;;2.13;;
47804;SDS011;33568;45.286;9.900;2023-04-25T01:01:46;2.75;;;2.17;;
47804;SDS011;33568;45.286;9.900;2023-04-25T01:04:13;5.25;;;2.50;;
47804;SDS011;33568;45.286;9.900;2023-04-25T01:06:39;3.40;;;2.50;;
47804;SDS011;33568;45.286;9.900;2023-04-25T01:09:06;3.85;;;2.67;;
47804;SDS011;33568;45.286;9.900;2023-04-25T01:11:33;3.30;;;2.65;;
47804;SDS011;33568;45.286;9.900;2023-04-25T01:16:27;3.13;;;2.65;;
47804;SDS011;33568;45.286;9.900;2023-04-25T01:18:54;5.93;;;3.00;;
47804;SDS011;33568;45.286;9.900;2023-04-25T01:21:21;4.03;;;3.20;;
47804;SDS011;33568;45.286;9.900;2023-04-25T01:23:47;5.63;;;2.90;;
47804;SDS011;33568;45.286;9.900;2023-04-25T01:26:14;3.17;;;2.80;;
47804;SDS011;33568;45.286;9.900;2023-04-25T01:28:42;4.45;;;3.10;;
47804;SDS011;33568;45.286;9.900;2023-04-25T01:31:11;3.33;;;2.85;;
47804;SDS011;33568;45.286;9.900;2023-04-25T01:33:38;7.80;;;3.30;;
47804;SDS011;33568;45.286;9.900;2023-04-25T01:38:31;6.63;;;3.00;;
47804;SDS011;33568;45.286;9.900;2023-04-25T01:40:57;3.72;;;3.05;;
47804;SDS011;33568;45.286;9.900;2023-04-25T01:43:24;4.60;;;2.65;;
47804;SDS011;33568;45.286;9.900;2023-04-25T01:45:52;3.67;;;2.80;;
47804;SDS011;33568;45.286;9.900;2023-04-25T01:48:19;4.55;;;2.80;;
47804;SDS011;33568;45.286;9.900;2023-04-25T01:50:46;4.78;;;2.90;;
47804;SDS011;33568;45.286;9.900;2023-04-25T01:55:42;4.05;;;3.00;;
47804;SDS011;33568;45.286;9.900;2023-04-25T01:58:11;5.05;;;2.95;;
47804;SDS011;33568;45.286;9.900;2023-04-25T02:00:56;3.40;;;2.80;;
47804;SDS011;33568;45.286;9.900;2023-04-25T02:03:25;2.60;;;2.40;;
47804;SDS011;33568;45.286;9.900;2023-04-25T02:05:52;4.72;;;2.58;;
47804;SDS011;33568;45.286;9.900;2023-04-25T02:08:22;3.33;;;2.40;;
47804;SDS011;33568;45.286;9.900;2023-04-25T02:13:18;7.15;;;2.50;;
47804;SDS011;33568;45.286;9.900;2023-04-25T02:16:13;4.90;;;2.40;;
47804;SDS011;33568;45.286;9.900;2023-04-25T02:21:06;2.42;;;2.22;;
47804;SDS011;33568;45.286;9.900;2023-04-25T02:25:59;3.37;;;2.43;;
47804;SDS011;33568;45.286;9.900;2023-04-25T02:28:26;2.40;;;2.13;;
47804;SDS011;33568;45.286;9.900;2023-04-25T02:33:18;3.88;;;2.22;;
47804;SDS011;33568;45.286;9.900;2023-04-25T02:35:46;3.60;;;2.40;;
47804;SDS011;33568;45.286;9.900;2023-04-25T02:38:13;2.25;;;2.05;;
47804;SDS011;33568;45.286;9.900;2023-04-25T02:40:40;3.03;;;2.30;;
47804;SDS011;33568;45.286;9.900;2023-04-25T02:45:33;5.25;;;2.00;;
47804;SDS011;33568;45.286;9.900;2023-04-25T02:47:59;5.18;;;2.10;;
47804;SDS011;33568;45.286;9.900;2023-04-25T02:52:52;3.38;;;2.15;;
47804;SDS011;33568;45.286;9.900;2023-04-25T02:55:24;5.50;;;2.47;;
47804;SDS011;33568;45.286;9.900;2023-04-25T02:57:52;5.57;;;2.30;;
47804;SDS011;33568;45.286;9.900;2023-04-25T03:00:31;4.80;;;2.10;;
47804;SDS011;33568;45.286;9.900;2023-04-25T03:02:58;2.42;;;1.90;;
47804;SDS011;33568;45.286;9.900;2023-04-25T03:05:24;6.00;;;2.50;;
47804;SDS011;33568;45.286;9.900;2023-04-25T03:10:17;2.15;;;1.80;;
47804;SDS011;33568;45.286;9.900;2023-04-25T03:12:44;3.10;;;2.50;;
47804;SDS011;33568;45.286;9.900;2023-04-25T03:17:36;2.83;;;2.20;;
47804;SDS011;33568;45.286;9.900;2023-04-25T03:20:03;4.68;;;2.60;;
47804;SDS011;33568;45.286;9.900;2023-04-25T03:22:31;4.28;;;2.10;;
47804;SDS011;33568;45.286;9.900;2023-04-25T03:24:57;4.30;;;2.30;;
47804;SDS011;33568;45.286;9.900;2023-04-25T03:27:24;4.13;;;2.42;;
47804;SDS011;33568;45.286;9.900;2023-04-25T03:29:51;2.47;;;2.22;;
47804;SDS011;33568;45.286;9.900;2023-04-25T03:32:18;2.85;;;2.13;;
47804;SDS011;33568;45.286;9.900;2023-04-25T03:34:45;3.50;;;2.30;;
47804;SDS011;33568;45.286;9.900;2023-04-25T03:39:39;2.65;;;2.22;;
47804;SDS011;33568;45.286;9.900;2023-04-25T03:42:06;2.67;;;2.33;;
47804;SDS011;33568;45.286;9.900;2023-04-25T03:44:33;4.85;;;2.42;;
47804;SDS011;33568;45.286;9.900;2023-04-25T03:47:00;5.40;;;2.53;;
47804;SDS011;33568;45.286;9.900;2023-04-25T03:51:57;2.78;;;2.33;;
47804;SDS011;33568;45.286;9.900;2023-04-25T03:54:24;2.90;;;2.40;;
47804;SDS011;33568;45.286;9.900;2023-04-25T03:56:56;2.72;;;2.53;;
47804;SDS011;33568;45.286;9.900;2023-04-25T03:59:26;3.63;;;2.60;;
47804;SDS011;33568;45.286;9.900;2023-04-25T04:01:52;3.40;;;2.78;;
47804;SDS011;33568;45.286;9.900;2023-04-25T04:04:19;3.15;;;2.45;;
47804;SDS011;33568;45.286;9.900;2023-04-25T04:06:46;4.97;;;3.00;;
47804;SDS011;33568;45.286;9.900;2023-04-25T04:09:18;5.55;;;3.00;;
47804;SDS011;33568;45.286;9.900;2023-04-25T04:11:46;3.58;;;2.90;;
47804;SDS011;33568;45.286;9.900;2023-04-25T04:14:13;3.47;;;3.17;;
47804;SDS011;33568;45.286;9.900;2023-04-25T04:16:43;4.78;;;3.50;;
47804;SDS011;33568;45.286;9.900;2023-04-25T04:19:10;4.40;;;3.25;;
47804;SDS011;33568;45.286;9.900;2023-04-25T04:21:40;5.55;;;3.88;;
47804;SDS011;33568;45.286;9.900;2023-04-25T04:24:06;6.47;;;3.95;;
47804;SDS011;33568;45.286;9.900;2023-04-25T04:26:45;5.40;;;3.45;;
47804;SDS011;33568;45.286;9.900;2023-04-25T04:29:30;4.32;;;3.20;;
47804;SDS011;33568;45.286;9.900;2023-04-25T04:32:01;4.70;;;3.92;;
47804;SDS011;33568;45.286;9.900;2023-04-25T04:34:28;3.90;;;3.50;;
47804;SDS011;33568;45.286;9.900;2023-04-25T04:36:54;6.00;;;3.70;;
47804;SDS011;33568;45.286;9.900;2023-04-25T04:39:21;3.47;;;3.17;;
47804;SDS011;33568;45.286;9.900;2023-04-25T04:41:59;4.50;;;3.65;;
47804;SDS011;33568;45.286;9.900;2023-04-25T04:44:44;4.95;;;3.80;;
47804;SDS011;33568;45.286;9.900;2023-04-25T04:47:31;6.90;;;3.63;;
47804;SDS011;33568;45.286;9.900;2023-04-25T04:50:11;3.75;;;3.33;;
47804;SDS011;33568;45.286;9.900;2023-04-25T04:52:57;4.80;;;3.80;;
47804;SDS011;33568;45.286;9.900;2023-04-25T04:55:37;4.90;;;3.53;;
47804;SDS011;33568;45.286;9.900;2023-04-25T04:58:26;6.43;;;3.67;;
47804;SDS011;33568;45.286;9.900;2023-04-25T05:01:28;4.75;;;3.60;;
47804;SDS011;33568;45.286;9.900;2023-04-25T05:04:02;6.53;;;3.42;;
47804;SDS011;33568;45.286;9.900;2023-04-25T05:06:59;7.60;;;3.40;;
47804;SDS011;33568;45.286;9.900;2023-04-25T05:09:28;5.65;;;3.83;;
47804;SDS011;33568;45.286;9.900;2023-04-25T05:12:09;5.82;;;3.28;;
47804;SDS011;33568;45.286;9.900;2023-04-25T05:14:56;3.22;;;2.72;;
47804;SDS011;33568;45.286;9.900;2023-04-25T05:17:55;4.55;;;3.33;;
47804;SDS011;33568;45.286;9.900;2023-04-25T05:20:44;4.53;;;3.10;;
47804;SDS011;33568;45.286;9.900;2023-04-25T05:23:23;4.50;;;3.13;;
47804;SDS011;33568;45.286;9.900;2023-04-25T05:25:49;3.63;;;2.90;;
47804;SDS011;33568;45.286;9.900;2023-04-25T05:28:51;3.47;;;2.90;;
47804;SDS011;33568;45.286;9.900;2023-04-25T05:31:36;6.47;;;4.75;;
47804;SDS011;33568;45.286;9.900;2023-04-25T05:34:12;5.95;;;3.20;;
47804;SDS011;33568;45.286;9.900;2023-04-25T05:37:05;6.07;;;3.40;;
47804;SDS011;33568;45.286;9.900;2023-04-25T05:39:35;5.82;;;3.05;;
47804;SDS011;33568;45.286;9.900;2023-04-25T05:42:40;3.85;;;2.83;;
47804;SDS011;33568;45.286;9.900;2023-04-25T05:45:27;3.30;;;2.80;;
47804;SDS011;33568;45.286;9.900;2023-04-25T05:48:29;11.77;;;3.08;;
47804;SDS011;33568;45.286;9.900;2023-04-25T05:51:14;3.03;;;2.80;;
47804;SDS011;33568;45.286;9.900;2023-04-25T05:54:04;3.13;;;2.80;;
47804;SDS011;33568;45.286;9.900;2023-04-25T05:56:33;3.83;;;2.92;;
47804;SDS011;33568;45.286;9.900;2023-04-25T05:59:00;3.72;;;3.10;;
47804;SDS011;33568;45.286;9.900;2023-04-25T06:03:53;7.55;;;2.90;;
47804;SDS011;33568;45.286;9.900;2023-04-25T06:08:46;2.90;;;2.60;;
47804;SDS011;33568;45.286;9.900;2023-04-25T06:13:39;4.35;;;2.92;;
47804;SDS011;33568;45.286;9.900;2023-04-25T06:16:06;4.55;;;2.70;;
47804;SDS011;33568;45.286;9.900;2023-04-25T06:18:33;4.38;;;2.40;;
47804;SDS011;33568;45.286;9.900;2023-04-25T06:23:26;3.30;;;3.00;;
47804;SDS011;33568;45.286;9.900;2023-04-25T06:26:06;5.65;;;2.70;;
47804;SDS011;33568;45.286;9.900;2023-04-25T06:28:36;5.93;;;3.60;;
47804;SDS011;33568;45.286;9.900;2023-04-25T06:33:29;3.53;;;2.80;;
47804;SDS011;33568;45.286;9.900;2023-04-25T06:35:56;4.93;;;2.70;;
47804;SDS011;33568;45.286;9.900;2023-04-25T06:38:26;3.00;;;2.70;;
47804;SDS011;33568;45.286;9.900;2023-04-25T06:40:55;4.97;;;3.08;;
47804;SDS011;33568;45.286;9.900;2023-04-25T06:46:05;2.67;;;2.40;;
47804;SDS011;33568;45.286;9.900;2023-04-25T06:48:36;12.00;;;4.05;;
47804;SDS011;33568;45.286;9.900;2023-04-25T06:51:04;2.95;;;2.65;;
47804;SDS011;33568;45.286;9.900;2023-04-25T06:53:31;3.58;;;2.72;;
47804;SDS011;33568;45.286;9.900;2023-04-25T06:56:01;8.60;;;2.70;;
47804;SDS011;33568;45.286;9.900;2023-04-25T06:58:44;4.70;;;2.75;;
47804;SDS011;33568;45.286;9.900;2023-04-25T07:01:15;6.57;;;2.75;;
